sensor_id;sensor_type;location;lat;lon;timestamp;pressure;altitude;pressure_sealevel;temperature;humidity
74905;BME280;63465;50.862;6.220;2023-05-01T00:00:04;100057.53;;;11.23;88.71
74905;BME280;63465;50.862;6.220;2023-05-01T00:02:30;100047.19;;;11.17;88.66
74905;BME280;63465;50.862;6.220;2023-05-01T00:04:56;100044.03;;;11.28;87.74
74905;BME280;63465;50.862;6.220;2023-05-01T00:07:22;100039.22;;;11.55;87.07
74905;BME280;63465;50.862;6.220;2023-05-01T00:09:49;100034.41;;;11.45;87.91
74905;BME280;63465;50.862;6.220;2023-05-01T00:12:15;100039.59;;;11.29;88.82
74905;BME280;63465;50.862;6.220;2023-05-01T00:14:40;100033.41;;;11.28;88.44
74905;BME280;63465;50.862;6.220;2023-05-01T00:17:06;100032.44;;;11.10;89.61
74905;BME280;63465;50.862;6.220;2023-05-01T00:19:31;100027.81;;;11.15;89.30
74905;BME280;63465;50.862;6.220;2023-05-01T00:21:57;100034.81;;;11.16;89.49
74905;BME280;63465;50.862;6.220;2023-05-01T00:24:22;100023.06;;;11.22;89.65
74905;BME280;63465;50.862;6.220;2023-05-01T00:26:48;100020.41;;;11.22;89.39
74905;BME280;63465;50.862;6.220;2023-05-01T00:29:13;100022.84;;;11.07;89.81
74905;BME280;63465;50.862;6.220;2023-05-01T00:31:40;100015.91;;;11.24;89.39
74905;BME280;63465;50.862;6.220;2023-05-01T00:34:09;100016.28;;;11.15;89.22
74905;BME280;63465;50.862;6.220;2023-05-01T00:36:35;100009.44;;;11.11;89.75
74905;BME280;63465;50.862;6.220;2023-05-01T00:39:00;100009.56;;;11.07;89.93
74905;BME280;63465;50.862;6.220;2023-05-01T00:41:26;100001.97;;;11.00;90.18
74905;BME280;63465;50.862;6.220;2023-05-01T00:43:51;100011.66;;;11.20;89.66
74905;BME280;63465;50.862;6.220;2023-05-01T00:46:17;100003.16;;;11.12;90.02
74905;BME280;63465;50.862;6.220;2023-05-01T00:48:43;100004.41;;;11.04;90.17
74905;BME280;63465;50.862;6.220;2023-05-01T00:51:08;99997.13;;;11.08;90.13
74905;BME280;63465;50.862;6.220;2023-05-01T00:53:34;99990.97;;;11.07;90.30
74905;BME280;63465;50.862;6.220;2023-05-01T00:55:59;99993.91;;;11.20;89.17
74905;BME280;63465;50.862;6.220;2023-05-01T00:58:25;99980.69;;;11.19;89.59
74905;BME280;63465;50.862;6.220;2023-05-01T01:00:51;99980.56;;;11.22;89.39
74905;BME280;63465;50.862;6.220;2023-05-01T01:03:17;99979.78;;;11.20;89.55
74905;BME280;63465;50.862;6.220;2023-05-01T01:05:50;99987.47;;;11.26;89.69
74905;BME280;63465;50.862;6.220;2023-05-01T01:10:52;99970.22;;;11.16;89.83
74905;BME280;63465;50.862;6.220;2023-05-01T01:13:51;99961.81;;;11.25;89.48
74905;BME280;63465;50.862;6.220;2023-05-01T01:16:35;99956.88;;;11.36;89.75
74905;BME280;63465;50.862;6.220;2023-05-01T01:21:48;99952.91;;;11.26;89.83
74905;BME280;63465;50.862;6.220;2023-05-01T01:24:20;99953.84;;;11.25;89.81
74905;BME280;63465;50.862;6.220;2023-05-01T01:30:08;99944.34;;;11.38;89.42
74905;BME280;63465;50.862;6.220;2023-05-01T01:35:35;99938.66;;;11.29;89.91
74905;BME280;63465;50.862;6.220;2023-05-01T01:38:09;99938.97;;;11.40;89.30
74905;BME280;63465;50.862;6.220;2023-05-01T01:40:47;99936.31;;;11.40;88.88
74905;BME280;63465;50.862;6.220;2023-05-01T01:43:16;99931.84;;;11.40;89.32
74905;BME280;63465;50.862;6.220;2023-05-01T01:45:46;99922.59;;;11.67;88.42
74905;BME280;63465;50.862;6.220;2023-05-01T01:48:14;99918.91;;;11.52;89.20
74905;BME280;63465;50.862;6.220;2023-05-01T01:50:42;99924.84;;;11.39;89.73
74905;BME280;63465;50.862;6.220;2023-05-01T01:53:10;99912.69;;;11.34;90.22
74905;BME280;63465;50.862;6.220;2023-05-01T01:55:38;99916.34;;;11.50;89.33
74905;BME280;63465;50.862;6.220;2023-05-01T01:58:05;99912.88;;;11.48;89.53
74905;BME280;63465;50.862;6.220;2023-05-01T02:00:32;99915.72;;;11.63;88.87
74905;BME280;63465;50.862;6.220;2023-05-01T02:02:59;99904.66;;;11.35;89.29
74905;BME280;63465;50.862;6.220;2023-05-01T02:05:26;99905.13;;;11.43;90.05
74905;BME280;63465;50.862;6.220;2023-05-01T02:07:53;99899.75;;;11.45;89.95
74905;BME280;63465;50.862;6.220;2023-05-01T02:10:19;99895.84;;;11.35;90.07
74905;BME280;63465;50.862;6.220;2023-05-01T02:12:47;99896.38;;;11.41;89.84
74905;BME280;63465;50.862;6.220;2023-05-01T02:15:16;99898.66;;;11.32;89.54
74905;BME280;63465;50.862;6.220;2023-05-01T02:17:43;99882.94;;;11.27;90.07
74905;BME280;63465;50.862;6.220;2023-05-01T02:20:10;99884.63;;;11.28;90.31
74905;BME280;63465;50.862;6.220;2023-05-01T02:22:38;99888.03;;;11.32;90.30
74905;BME280;63465;50.862;6.220;2023-05-01T02:25:06;99876.59;;;11.30;90.31
74905;BME280;63465;50.862;6.220;2023-05-01T02:27:47;99882.09;;;11.44;89.68
74905;BME280;63465;50.862;6.220;2023-05-01T02:30:16;99880.84;;;11.51;89.24
74905;BME280;63465;50.862;6.220;2023-05-01T02:32:42;99875.28;;;11.38;89.94
74905;BME280;63465;50.862;6.220;2023-05-01T02:35:08;99867.78;;;11.47;90.17
74905;BME280;63465;50.862;6.220;2023-05-01T02:37:34;99874.34;;;11.39;90.16
74905;BME280;63465;50.862;6.220;2023-05-01T02:40:01;99870.41;;;11.29;90.39
74905;BME280;63465;50.862;6.220;2023-05-01T02:42:27;99861.91;;;11.40;90.17
74905;BME280;63465;50.862;6.220;2023-05-01T02:44:59;99850.97;;;11.46;90.25
74905;BME280;63465;50.862;6.220;2023-05-01T02:47:26;99852.63;;;11.49;90.73
74905;BME280;63465;50.862;6.220;2023-05-01T02:49:53;99852.53;;;11.33;90.11
74905;BME280;63465;50.862;6.220;2023-05-01T02:52:19;99848.56;;;11.24;90.64
74905;BME280;63465;50.862;6.220;2023-05-01T02:54:47;99847.94;;;11.36;90.72
74905;BME280;63465;50.862;6.220;2023-05-01T02:57:12;99839.66;;;11.42;90.15
74905;BME280;63465;50.862;6.220;2023-05-01T02:59:38;99838.09;;;11.38;90.92
74905;BME280;63465;50.862;6.220;2023-05-01T03:02:05;99841.34;;;11.43;90.08
74905;BME280;63465;50.862;6.220;2023-05-01T03:04:30;99841.59;;;11.39;89.85
74905;BME280;63465;50.862;6.220;2023-05-01T03:06:56;99833.56;;;11.58;89.17
74905;BME280;63465;50.862;6.220;2023-05-01T03:09:21;99837.63;;;11.48;89.15
74905;BME280;63465;50.862;6.220;2023-05-01T03:11:47;99830.88;;;11.40;90.41
74905;BME280;63465;50.862;6.220;2023-05-01T03:14:12;99835.97;;;11.28;91.21
74905;BME280;63465;50.862;6.220;2023-05-01T03:16:38;99828.22;;;11.23;90.58
74905;BME280;63465;50.862;6.220;2023-05-01T03:19:03;99828.53;;;11.34;90.04
74905;BME280;63465;50.862;6.220;2023-05-01T03:21:30;99821.41;;;11.17;90.91
74905;BME280;63465;50.862;6.220;2023-05-01T03:23:56;99821.34;;;11.19;90.61
74905;BME280;63465;50.862;6.220;2023-05-01T03:26:21;99816.91;;;11.19;90.76
74905;BME280;63465;50.862;6.220;2023-05-01T03:28:46;99816.31;;;11.13;90.95
74905;BME280;63465;50.862;6.220;2023-05-01T03:31:12;99818.09;;;10.95;91.92
74905;BME280;63465;50.862;6.220;2023-05-01T03:33:37;99805.72;;;11.13;91.66
74905;BME280;63465;50.862;6.220;2023-05-01T03:36:04;99815.34;;;10.96;92.62
74905;BME280;63465;50.862;6.220;2023-05-01T03:38:30;99808.28;;;10.78;93.41
74905;BME280;63465;50.862;6.220;2023-05-01T03:40:56;99797.19;;;10.69;93.85
74905;BME280;63465;50.862;6.220;2023-05-01T03:43:22;99801.78;;;10.66;94.68
74905;BME280;63465;50.862;6.220;2023-05-01T03:45:48;99801.50;;;10.72;94.29
74905;BME280;63465;50.862;6.220;2023-05-01T03:48:14;99796.28;;;10.88;93.13
74905;BME280;63465;50.862;6.220;2023-05-01T03:50:40;99791.75;;;10.53;94.16
74905;BME280;63465;50.862;6.220;2023-05-01T03:53:05;99799.13;;;10.47;95.36
74905;BME280;63465;50.862;6.220;2023-05-01T03:55:30;99798.56;;;10.40;95.63
74905;BME280;63465;50.862;6.220;2023-05-01T03:57:56;99795.03;;;10.40;95.93
74905;BME280;63465;50.862;6.220;2023-05-01T04:00:21;99795.31;;;10.33;95.83
74905;BME280;63465;50.862;6.220;2023-05-01T04:02:46;99798.78;;;10.35;96.08
74905;BME280;63465;50.862;6.220;2023-05-01T04:05:12;99795.09;;;10.19;96.23
74905;BME280;63465;50.862;6.220;2023-05-01T04:07:37;99797.81;;;10.17;96.89
74905;BME280;63465;50.862;6.220;2023-05-01T04:10:03;99800.75;;;10.11;96.90
74905;BME280;63465;50.862;6.220;2023-05-01T04:12:31;99795.00;;;10.21;96.63
74905;BME280;63465;50.862;6.220;2023-05-01T04:14:56;99800.31;;;10.02;97.46
74905;BME280;63465;50.862;6.220;2023-05-01T04:17:21;99795.38;;;10.13;97.41
74905;BME280;63465;50.862;6.220;2023-05-01T04:19:47;99794.50;;;10.12;96.58
74905;BME280;63465;50.862;6.220;2023-05-01T04:22:12;99795.38;;;10.13;96.53
74905;BME280;63465;50.862;6.220;2023-05-01T04:24:38;99796.59;;;10.25;96.30
74905;BME280;63465;50.862;6.220;2023-05-01T04:27:03;99794.66;;;10.28;95.81
74905;BME280;63465;50.862;6.220;2023-05-01T04:29:29;99793.88;;;10.26;96.03
74905;BME280;63465;50.862;6.220;2023-05-01T04:31:55;99793.91;;;10.45;95.42
74905;BME280;63465;50.862;6.220;2023-05-01T04:34:21;99786.00;;;10.44;95.10
74905;BME280;63465;50.862;6.220;2023-05-01T04:36:46;99796.59;;;10.25;95.66
74905;BME280;63465;50.862;6.220;2023-05-01T04:39:11;99782.09;;;10.32;95.99
74905;BME280;63465;50.862;6.220;2023-05-01T04:41:36;99787.09;;;10.40;95.82
74905;BME280;63465;50.862;6.220;2023-05-01T04:44:02;99781.06;;;10.36;95.09
74905;BME280;63465;50.862;6.220;2023-05-01T04:46:27;99782.50;;;10.43;94.71
74905;BME280;63465;50.862;6.220;2023-05-01T04:48:52;99786.25;;;10.58;93.75
74905;BME280;63465;50.862;6.220;2023-05-01T04:51:18;99782.56;;;10.61;93.06
74905;BME280;63465;50.862;6.220;2023-05-01T04:53:43;99789.66;;;10.60;93.50
74905;BME280;63465;50.862;6.220;2023-05-01T04:56:09;99789.19;;;10.88;92.48
74905;BME280;63465;50.862;6.220;2023-05-01T04:58:34;99788.81;;;10.96;92.98
74905;BME280;63465;50.862;6.220;2023-05-01T05:00:59;99786.16;;;10.96;93.67
74905;BME280;63465;50.862;6.220;2023-05-01T05:03:25;99787.56;;;10.67;95.43
74905;BME280;63465;50.862;6.220;2023-05-01T05:05:51;99780.34;;;10.70;96.56
74905;BME280;63465;50.862;6.220;2023-05-01T05:08:16;99785.66;;;10.70;96.05
74905;BME280;63465;50.862;6.220;2023-05-01T05:10:41;99787.59;;;10.48;94.72
74905;BME280;63465;50.862;6.220;2023-05-01T05:13:07;99787.09;;;10.40;93.69
74905;BME280;63465;50.862;6.220;2023-05-01T05:15:33;99788.59;;;10.45;93.34
74905;BME280;63465;50.862;6.220;2023-05-01T05:17:59;99791.53;;;10.58;93.15
74905;BME280;63465;50.862;6.220;2023-05-01T05:20:24;99786.72;;;10.66;93.80
74905;BME280;63465;50.862;6.220;2023-05-01T05:22:50;99785.44;;;10.56;93.35
74905;BME280;63465;50.862;6.220;2023-05-01T05:25:15;99790.03;;;10.52;93.86
74905;BME280;63465;50.862;6.220;2023-05-01T05:27:40;99800.31;;;10.78;94.42
74905;BME280;63465;50.862;6.220;2023-05-01T05:30:06;99792.28;;;10.79;93.06
74905;BME280;63465;50.862;6.220;2023-05-01T05:32:32;99791.63;;;10.93;92.61
74905;BME280;63465;50.862;6.220;2023-05-01T05:34:57;99790.94;;;11.07;93.15
74905;BME280;63465;50.862;6.220;2023-05-01T05:37:23;99794.00;;;11.17;93.76
74905;BME280;63465;50.862;6.220;2023-05-01T05:39:50;99791.97;;;11.04;97.21
74905;BME280;63465;50.862;6.220;2023-05-01T05:42:15;99791.56;;;11.12;97.43
74905;BME280;63465;50.862;6.220;2023-05-01T05:44:40;99783.84;;;11.07;97.65
74905;BME280;63465;50.862;6.220;2023-05-01T05:47:06;99791.19;;;11.20;97.00
74905;BME280;63465;50.862;6.220;2023-05-01T05:49:31;99785.66;;;11.24;98.21
74905;BME280;63465;50.862;6.220;2023-05-01T05:51:56;99792.44;;;11.48;95.45
74905;BME280;63465;50.862;6.220;2023-05-01T05:54:22;99795.00;;;11.14;98.47
74905;BME280;63465;50.862;6.220;2023-05-01T05:56:47;99788.19;;;11.09;100.00
74905;BME280;63465;50.862;6.220;2023-05-01T05:59:12;99784.94;;;11.38;99.69
74905;BME280;63465;50.862;6.220;2023-05-01T06:01:37;99782.75;;;11.29;98.57
74905;BME280;63465;50.862;6.220;2023-05-01T06:04:04;99786.97;;;11.51;97.50
74905;BME280;63465;50.862;6.220;2023-05-01T06:06:29;99780.16;;;11.45;97.05
74905;BME280;63465;50.862;6.220;2023-05-01T06:08:56;99776.63;;;11.80;95.34
74905;BME280;63465;50.862;6.220;2023-05-01T06:11:22;99782.59;;;11.67;94.63
74905;BME280;63465;50.862;6.220;2023-05-01T06:13:47;99779.81;;;11.86;94.35
74905;BME280;63465;50.862;6.220;2023-05-01T06:16:12;99782.63;;;12.01;93.90
74905;BME280;63465;50.862;6.220;2023-05-01T06:18:39;99780.31;;;11.94;93.60
74905;BME280;63465;50.862;6.220;2023-05-01T06:21:05;99777.69;;;12.10;92.90
74905;BME280;63465;50.862;6.220;2023-05-01T06:23:30;99775.28;;;12.22;92.61
74905;BME280;63465;50.862;6.220;2023-05-01T06:25:58;99779.06;;;12.18;92.42
74905;BME280;63465;50.862;6.220;2023-05-01T06:28:23;99780.19;;;12.29;91.72
74905;BME280;63465;50.862;6.220;2023-05-01T06:30:48;99772.28;;;12.60;91.08
74905;BME280;63465;50.862;6.220;2023-05-01T06:33:14;99774.63;;;12.66;91.52
74905;BME280;63465;50.862;6.220;2023-05-01T06:35:39;99783.38;;;12.52;92.06
74905;BME280;63465;50.862;6.220;2023-05-01T06:38:05;99774.28;;;12.56;92.36
74905;BME280;63465;50.862;6.220;2023-05-01T06:40:30;99773.38;;;12.88;90.39
74905;BME280;63465;50.862;6.220;2023-05-01T06:42:56;99772.00;;;12.96;89.98
74905;BME280;63465;50.862;6.220;2023-05-01T06:45:22;99775.44;;;12.98;89.67
74905;BME280;63465;50.862;6.220;2023-05-01T06:47:47;99775.91;;;13.21;89.33
74905;BME280;63465;50.862;6.220;2023-05-01T06:50:12;99773.13;;;12.92;90.82
74905;BME280;63465;50.862;6.220;2023-05-01T06:52:39;99776.94;;;12.56;92.60
74905;BME280;63465;50.862;6.220;2023-05-01T06:55:04;99775.06;;;12.74;91.64
74905;BME280;63465;50.862;6.220;2023-05-01T06:57:30;99782.13;;;13.22;90.51
74905;BME280;63465;50.862;6.220;2023-05-01T06:59:55;99777.00;;;13.33;90.05
74905;BME280;63465;50.862;6.220;2023-05-01T07:02:20;99772.22;;;13.54;88.85
74905;BME280;63465;50.862;6.220;2023-05-01T07:04:46;99782.50;;;13.30;88.46
74905;BME280;63465;50.862;6.220;2023-05-01T07:07:11;99789.72;;;13.44;85.64
74905;BME280;63465;50.862;6.220;2023-05-01T07:09:36;99784.03;;;13.64;87.46
74905;BME280;63465;50.862;6.220;2023-05-01T07:12:03;99786.19;;;13.43;85.45
74905;BME280;63465;50.862;6.220;2023-05-01T07:14:29;99789.06;;;13.40;83.08
74905;BME280;63465;50.862;6.220;2023-05-01T07:16:55;99785.69;;;13.96;82.21
74905;BME280;63465;50.862;6.220;2023-05-01T07:19:20;99785.41;;;14.00;81.11
74905;BME280;63465;50.862;6.220;2023-05-01T07:21:45;99779.88;;;14.32;80.67
74905;BME280;63465;50.862;6.220;2023-05-01T07:24:11;99776.81;;;14.24;76.47
74905;BME280;63465;50.862;6.220;2023-05-01T07:26:36;99772.97;;;14.98;74.99
74905;BME280;63465;50.862;6.220;2023-05-01T07:29:02;99783.78;;;14.26;79.04
74905;BME280;63465;50.862;6.220;2023-05-01T07:31:28;99780.53;;;14.50;77.06
74905;BME280;63465;50.862;6.220;2023-05-01T07:33:53;99772.19;;;14.69;76.62
74905;BME280;63465;50.862;6.220;2023-05-01T07:36:19;99761.13;;;14.75;76.18
74905;BME280;63465;50.862;6.220;2023-05-01T07:38:46;99768.41;;;14.44;75.17
74905;BME280;63465;50.862;6.220;2023-05-01T07:41:12;99760.47;;;14.72;74.30
74905;BME280;63465;50.862;6.220;2023-05-01T07:43:37;99766.00;;;14.96;72.65
74905;BME280;63465;50.862;6.220;2023-05-01T07:46:02;99767.63;;;14.98;72.65
74905;BME280;63465;50.862;6.220;2023-05-01T07:48:28;99762.50;;;15.74;70.09
74905;BME280;63465;50.862;6.220;2023-05-01T07:50:54;99758.56;;;15.14;72.87
74905;BME280;63465;50.862;6.220;2023-05-01T07:53:20;99765.03;;;15.24;73.18
74905;BME280;63465;50.862;6.220;2023-05-01T07:55:47;99776.75;;;15.75;70.37
74905;BME280;63465;50.862;6.220;2023-05-01T07:58:12;99768.59;;;15.63;71.40
74905;BME280;63465;50.862;6.220;2023-05-01T08:00:38;99772.34;;;15.74;70.40
74905;BME280;63465;50.862;6.220;2023-05-01T08:03:03;99774.16;;;16.25;74.14
74905;BME280;63465;50.862;6.220;2023-05-01T08:05:28;99774.53;;;16.94;64.50
74905;BME280;63465;50.862;6.220;2023-05-01T08:07:55;99762.34;;;17.25;61.93
74905;BME280;63465;50.862;6.220;2023-05-01T08:10:21;99765.44;;;17.32;61.78
74905;BME280;63465;50.862;6.220;2023-05-01T08:12:46;99775.94;;;17.35;58.77
74905;BME280;63465;50.862;6.220;2023-05-01T08:15:11;99772.47;;;17.69;59.23
74905;BME280;63465;50.862;6.220;2023-05-01T08:17:37;99769.47;;;17.38;58.70
74905;BME280;63465;50.862;6.220;2023-05-01T08:20:03;99767.22;;;17.67;58.11
74905;BME280;63465;50.862;6.220;2023-05-01T08:22:28;99768.50;;;18.08;55.86
74905;BME280;63465;50.862;6.220;2023-05-01T08:24:54;99769.50;;;18.18;57.33
74905;BME280;63465;50.862;6.220;2023-05-01T08:27:19;99765.84;;;17.97;55.51
74905;BME280;63465;50.862;6.220;2023-05-01T08:29:45;99773.44;;;17.21;58.24
74905;BME280;63465;50.862;6.220;2023-05-01T08:32:10;99763.81;;;17.65;57.90
74905;BME280;63465;50.862;6.220;2023-05-01T08:34:36;99762.38;;;17.72;58.52
74905;BME280;63465;50.862;6.220;2023-05-01T08:37:01;99771.34;;;18.18;58.08
74905;BME280;63465;50.862;6.220;2023-05-01T08:39:26;99762.53;;;18.05;57.18
74905;BME280;63465;50.862;6.220;2023-05-01T08:41:52;99763.97;;;18.54;56.81
74905;BME280;63465;50.862;6.220;2023-05-01T08:44:18;99769.72;;;18.27;57.34
74905;BME280;63465;50.862;6.220;2023-05-01T08:49:31;99763.28;;;17.48;57.81
74905;BME280;63465;50.862;6.220;2023-05-01T08:51:57;99767.97;;;16.98;59.39
74905;BME280;63465;50.862;6.220;2023-05-01T08:54:23;99763.50;;;17.10;59.10
74905;BME280;63465;50.862;6.220;2023-05-01T08:56:52;99766.84;;;17.14;59.93
74905;BME280;63465;50.862;6.220;2023-05-01T08:59:17;99770.13;;;16.93;60.23
74905;BME280;63465;50.862;6.220;2023-05-01T09:01:45;99763.00;;;17.40;60.25
74905;BME280;63465;50.862;6.220;2023-05-01T09:04:12;99760.28;;;17.76;59.51
74905;BME280;63465;50.862;6.220;2023-05-01T09:06:38;99766.97;;;17.70;59.94
74905;BME280;63465;50.862;6.220;2023-05-01T09:09:03;99767.19;;;18.14;58.76
74905;BME280;63465;50.862;6.220;2023-05-01T09:11:29;99755.31;;;18.39;57.87
74905;BME280;63465;50.862;6.220;2023-05-01T09:13:54;99769.59;;;18.51;57.05
74905;BME280;63465;50.862;6.220;2023-05-01T09:16:21;99767.03;;;18.49;54.03
74905;BME280;63465;50.862;6.220;2023-05-01T09:18:47;99764.47;;;18.48;55.13
74905;BME280;63465;50.862;6.220;2023-05-01T09:21:13;99763.13;;;18.42;55.13
74905;BME280;63465;50.862;6.220;2023-05-01T09:23:38;99769.34;;;18.31;54.96
74905;BME280;63465;50.862;6.220;2023-05-01T09:26:05;99764.16;;;17.60;57.74
74905;BME280;63465;50.862;6.220;2023-05-01T09:28:44;99767.59;;;17.74;58.13
74905;BME280;63465;50.862;6.220;2023-05-01T09:33:55;99770.09;;;18.56;57.18
74905;BME280;63465;50.862;6.220;2023-05-01T09:36:22;99769.72;;;18.61;57.06
74905;BME280;63465;50.862;6.220;2023-05-01T09:38:47;99770.97;;;18.45;57.64
74905;BME280;63465;50.862;6.220;2023-05-01T09:41:13;99762.47;;;18.72;57.84
74905;BME280;63465;50.862;6.220;2023-05-01T09:43:38;99777.94;;;17.56;59.49
74905;BME280;63465;50.862;6.220;2023-05-01T09:46:08;99777.22;;;17.54;59.95
74905;BME280;63465;50.862;6.220;2023-05-01T09:48:35;99775.59;;;18.32;58.43
74905;BME280;63465;50.862;6.220;2023-05-01T09:51:20;99768.50;;;18.08;57.62
74905;BME280;63465;50.862;6.220;2023-05-01T09:53:46;99775.38;;;17.65;58.78
74905;BME280;63465;50.862;6.220;2023-05-01T09:56:11;99771.81;;;17.89;59.09
74905;BME280;63465;50.862;6.220;2023-05-01T09:58:37;99766.88;;;17.83;58.77
74905;BME280;63465;50.862;6.220;2023-05-01T10:01:02;99772.19;;;18.07;57.27
74905;BME280;63465;50.862;6.220;2023-05-01T10:03:28;99769.25;;;18.22;57.82
74905;BME280;63465;50.862;6.220;2023-05-01T10:05:53;99770.84;;;18.24;58.12
74905;BME280;63465;50.862;6.220;2023-05-01T10:08:21;99760.44;;;18.42;57.93
74905;BME280;63465;50.862;6.220;2023-05-01T10:10:58;99769.47;;;17.96;59.24
74905;BME280;63465;50.862;6.220;2023-05-01T10:13:24;99771.88;;;17.76;58.77
74905;BME280;63465;50.862;6.220;2023-05-01T10:15:49;99771.78;;;17.42;60.51
74905;BME280;63465;50.862;6.220;2023-05-01T10:18:15;99772.94;;;17.62;60.36
74905;BME280;63465;50.862;6.220;2023-05-01T10:20:41;99767.91;;;17.11;60.18
74905;BME280;63465;50.862;6.220;2023-05-01T10:23:07;99771.69;;;17.91;59.31
74905;BME280;63465;50.862;6.220;2023-05-01T10:25:32;99769.34;;;17.86;58.56
74905;BME280;63465;50.862;6.220;2023-05-01T10:28:02;99766.06;;;17.47;61.11
74905;BME280;63465;50.862;6.220;2023-05-01T10:30:28;99759.88;;;17.58;61.43
74905;BME280;63465;50.862;6.220;2023-05-01T10:32:54;99765.22;;;17.35;61.80
74905;BME280;63465;50.862;6.220;2023-05-01T10:35:27;99758.56;;;17.75;59.67
74905;BME280;63465;50.862;6.220;2023-05-01T10:38:00;99767.91;;;17.46;61.85
74905;BME280;63465;50.862;6.220;2023-05-01T10:43:25;99768.53;;;18.20;60.38
74905;BME280;63465;50.862;6.220;2023-05-01T10:51:25;99769.06;;;19.23;55.85
74905;BME280;63465;50.862;6.220;2023-05-01T10:59:04;99760.44;;;19.72;54.71
74905;BME280;63465;50.862;6.220;2023-05-01T11:01:43;99764.53;;;18.92;56.26
74905;BME280;63465;50.862;6.220;2023-05-01T11:12:04;99747.13;;;19.07;55.70
74905;BME280;63465;50.862;6.220;2023-05-01T11:15:03;99754.53;;;20.30;52.96
74905;BME280;63465;50.862;6.220;2023-05-01T11:20:04;99740.34;;;20.78;52.27
74905;BME280;63465;50.862;6.220;2023-05-01T11:22:30;99742.91;;;20.90;51.35
74905;BME280;63465;50.862;6.220;2023-05-01T11:24:56;99735.94;;;20.67;53.40
74905;BME280;63465;50.862;6.220;2023-05-01T11:27:22;99737.94;;;21.05;53.38
74905;BME280;63465;50.862;6.220;2023-05-01T11:29:48;99739.63;;;21.06;51.69
74905;BME280;63465;50.862;6.220;2023-05-01T11:32:17;99742.72;;;19.90;53.94
74905;BME280;63465;50.862;6.220;2023-05-01T11:34:43;99741.91;;;21.00;52.10
74905;BME280;63465;50.862;6.220;2023-05-01T11:37:08;99734.38;;;22.00;47.96
74905;BME280;63465;50.862;6.220;2023-05-01T11:39:33;99736.81;;;20.97;48.47
74905;BME280;63465;50.862;6.220;2023-05-01T11:42:06;99732.47;;;21.83;45.77
74905;BME280;63465;50.862;6.220;2023-05-01T11:44:31;99732.00;;;23.17;41.75
74905;BME280;63465;50.862;6.220;2023-05-01T11:46:56;99730.63;;;22.49;43.60
74905;BME280;63465;50.862;6.220;2023-05-01T11:49:28;99722.28;;;21.57;44.69
74905;BME280;63465;50.862;6.220;2023-05-01T11:51:57;99720.56;;;22.03;45.76
74905;BME280;63465;50.862;6.220;2023-05-01T11:54:23;99715.16;;;23.05;43.66
74905;BME280;63465;50.862;6.220;2023-05-01T11:56:56;99719.34;;;22.25;45.30
74905;BME280;63465;50.862;6.220;2023-05-01T11:59:22;99715.28;;;22.67;44.13
74905;BME280;63465;50.862;6.220;2023-05-01T12:01:48;99705.94;;;22.97;38.71
74905;BME280;63465;50.862;6.220;2023-05-01T12:04:25;99723.44;;;21.25;44.36
74905;BME280;63465;50.862;6.220;2023-05-01T12:06:53;99715.94;;;21.29;44.27
74905;BME280;63465;50.862;6.220;2023-05-01T12:09:26;99707.97;;;20.69;49.35
74905;BME280;63465;50.862;6.220;2023-05-01T12:11:52;99708.06;;;20.47;49.76
74905;BME280;63465;50.862;6.220;2023-05-01T12:14:18;99707.69;;;20.72;49.88
74905;BME280;63465;50.862;6.220;2023-05-01T12:16:45;99708.25;;;20.65;49.00
74905;BME280;63465;50.862;6.220;2023-05-01T12:19:14;99708.50;;;20.12;49.66
74905;BME280;63465;50.862;6.220;2023-05-01T12:21:40;99700.41;;;20.62;48.13
74905;BME280;63465;50.862;6.220;2023-05-01T12:24:10;99702.75;;;21.06;48.18
74905;BME280;63465;50.862;6.220;2023-05-01T12:26:35;99697.06;;;20.90;45.33
74905;BME280;63465;50.862;6.220;2023-05-01T12:29:05;99693.06;;;20.84;44.39
74905;BME280;63465;50.862;6.220;2023-05-01T12:34:01;99693.16;;;20.53;46.77
74905;BME280;63465;50.862;6.220;2023-05-01T12:36:29;99703.28;;;20.90;46.14
74905;BME280;63465;50.862;6.220;2023-05-01T12:41:35;99702.88;;;20.85;46.32
74905;BME280;63465;50.862;6.220;2023-05-01T12:44:02;99696.75;;;21.22;43.07
74905;BME280;63465;50.862;6.220;2023-05-01T12:46:28;99689.91;;;21.47;42.99
74905;BME280;63465;50.862;6.220;2023-05-01T12:48:53;99684.53;;;21.85;44.21
74905;BME280;63465;50.862;6.220;2023-05-01T12:51:19;99687.19;;;21.37;46.93
74905;BME280;63465;50.862;6.220;2023-05-01T12:53:45;99686.50;;;20.47;49.91
74905;BME280;63465;50.862;6.220;2023-05-01T12:56:20;99684.59;;;20.28;49.79
74905;BME280;63465;50.862;6.220;2023-05-01T12:58:47;99684.41;;;20.90;47.86
74905;BME280;63465;50.862;6.220;2023-05-01T13:01:22;99688.66;;;20.13;50.24
74905;BME280;63465;50.862;6.220;2023-05-01T13:03:49;99685.44;;;20.89;47.88
74905;BME280;63465;50.862;6.220;2023-05-01T13:06:15;99693.06;;;21.23;47.69
74905;BME280;63465;50.862;6.220;2023-05-01T13:08:40;99685.81;;;20.05;51.01
74905;BME280;63465;50.862;6.220;2023-05-01T13:11:16;99692.78;;;21.26;47.43
74905;BME280;63465;50.862;6.220;2023-05-01T13:13:43;99698.59;;;21.51;45.75
74905;BME280;63465;50.862;6.220;2023-05-01T13:16:13;99716.94;;;21.85;46.18
74905;BME280;63465;50.862;6.220;2023-05-01T13:18:45;99735.19;;;19.21;52.27
74905;BME280;63465;50.862;6.220;2023-05-01T13:21:12;99753.59;;;18.49;54.34
74905;BME280;63465;50.862;6.220;2023-05-01T13:23:39;99762.34;;;19.18;51.89
74905;BME280;63465;50.862;6.220;2023-05-01T13:26:06;99755.94;;;19.30;54.37
74905;BME280;63465;50.862;6.220;2023-05-01T13:28:34;99755.69;;;18.34;54.56
74905;BME280;63465;50.862;6.220;2023-05-01T13:30:59;99756.53;;;18.46;55.03
74905;BME280;63465;50.862;6.220;2023-05-01T13:33:25;99756.06;;;18.30;53.17
74905;BME280;63465;50.862;6.220;2023-05-01T13:35:50;99765.03;;;17.83;55.12
74905;BME280;63465;50.862;6.220;2023-05-01T13:38:15;99773.81;;;17.74;54.71
74905;BME280;63465;50.862;6.220;2023-05-01T13:40:47;99769.66;;;17.59;55.88
74905;BME280;63465;50.862;6.220;2023-05-01T13:43:13;99764.72;;;18.56;53.76